Preeceville, Canada
Current Conditions -  °F | °C
As of 1:00 PM on Tuesday 27 Jan 2015 (Local Time) from CYQV Reporting Station
Clear Clear  
Wind Chill: 32°   Ceiling: Unl
Heat Index: 32°   Visibility: 9mi
Dew Point: 30°   Wind: 3mph
Humidity: 93%   Direction: 80°E
Pressure: 29.83"   Gusts: NA
Location:  51.95°N, 102.67°W
Report Text: CYQV 271900Z AUTO 08003KT 9SM CLR M00/M01 A2983 RMK SLP126
Loading
Personal Weather Stations






























Interactive Weather Map New forecast layout! Learn more

10-Day Weather Forecast

Advertisements
Track Severe Weather on mobile